createdAt,value
2022-12-03T00:00:22.317Z,79.66
2022-12-03T00:03:30.323Z,79.72
2022-12-03T00:06:06.233Z,79.84
2022-12-03T00:08:54.161Z,79.83
2022-12-03T00:11:29.372Z,79.88
2022-12-03T00:14:17.313Z,79.91
2022-12-03T00:16:52.359Z,79.86
2022-12-03T00:19:40.196Z,79.86
2022-12-03T00:22:15.287Z,79.91
2022-12-03T00:25:03.137Z,80.09
2022-12-03T00:27:38.292Z,80.01
2022-12-03T00:30:33.140Z,80.09
2022-12-03T00:33:28.153Z,80.08
2022-12-03T00:36:17.336Z,80.13
2022-12-03T00:39:00.134Z,79.95
2022-12-03T00:41:55.155Z,79.81
2022-12-03T00:44:50.211Z,79.89
2022-12-03T00:47:38.141Z,79.68
2022-12-03T00:50:20.129Z,79.70
2022-12-03T00:53:15.314Z,79.68
2022-12-03T00:56:03.147Z,79.76
2022-12-03T00:58:39.251Z,79.81
2022-12-03T01:01:27.205Z,79.93
2022-12-03T01:04:02.274Z,79.92
2022-12-03T01:06:50.132Z,79.91
2022-12-03T01:09:25.268Z,79.82
2022-12-03T01:12:13.142Z,79.66
2022-12-03T01:14:48.270Z,79.81
2022-12-03T01:17:36.118Z,79.76
2022-12-03T01:20:42.708Z,79.70
2022-12-03T01:24:07.804Z,79.80
2022-12-03T01:27:03.142Z,79.70
2022-12-03T01:29:38.277Z,79.71
2022-12-03T01:32:26.145Z,79.79
2022-12-03T01:35:14.133Z,79.91
2022-12-03T01:37:48.542Z,79.82
2022-12-03T01:40:37.328Z,79.79
2022-12-03T01:43:12.569Z,79.72
2022-12-03T01:46:01.332Z,79.62
2022-12-03T01:48:45.128Z,79.62
2022-12-03T01:51:26.251Z,79.80
2022-12-03T01:54:08.123Z,79.75
2022-12-03T01:56:49.297Z,79.88
2022-12-03T01:59:35.133Z,79.91
2022-12-03T02:02:37.132Z,80.03
2022-12-03T02:05:22.307Z,80.05
2022-12-03T02:08:12.355Z,80.07
2022-12-03T02:10:55.109Z,80.12
2022-12-03T02:13:36.265Z,80.21
2022-12-03T02:16:17.164Z,80.15
2022-12-03T02:18:59.289Z,80.17
2022-12-03T02:22:05.128Z,80.14
2022-12-03T02:25:17.472Z,80.29
2022-12-03T02:28:01.115Z,80.42
2022-12-03T02:30:56.131Z,80.48
2022-12-03T02:33:44.111Z,80.48
2022-12-03T02:36:25.246Z,80.48
2022-12-03T02:39:06.127Z,80.40
2022-12-03T02:42:05.877Z,80.34
2022-12-03T02:44:47.129Z,80.25
2022-12-03T02:47:36.114Z,80.21
2022-12-03T02:50:19.133Z,80.25
2022-12-03T02:53:01.263Z,80.16
2022-12-03T02:55:42.104Z,80.14
2022-12-03T02:58:24.246Z,80.00
2022-12-03T03:01:06.370Z,80.06
2022-12-03T03:03:49.267Z,80.04
2022-12-03T03:06:32.306Z,79.93
2022-12-03T03:09:21.101Z,79.85
2022-12-03T03:12:03.111Z,79.75
2022-12-03T03:14:52.595Z,79.67
2022-12-03T03:17:28.612Z,79.76
2022-12-03T03:20:20.100Z,79.56
2022-12-03T03:23:01.116Z,79.38
2022-12-03T03:25:42.266Z,79.47
2022-12-03T03:28:23.109Z,79.63
2022-12-03T03:31:05.261Z,79.57
2022-12-03T03:33:54.106Z,79.70
2022-12-03T03:36:37.108Z,79.90
2022-12-03T03:39:25.100Z,79.79
2022-12-03T03:42:07.083Z,79.57
2022-12-03T03:45:02.107Z,79.57
2022-12-03T03:47:50.092Z,79.53
2022-12-03T03:50:25.329Z,79.52
2022-12-03T03:53:13.292Z,79.51
2022-12-03T03:55:48.242Z,79.44
2022-12-03T03:58:36.107Z,79.55
2022-12-03T04:01:11.301Z,79.34
2022-12-03T04:04:00.241Z,79.44
2022-12-03T04:06:42.094Z,79.52
2022-12-03T04:09:37.307Z,79.41
2022-12-03T04:12:45.092Z,79.36
2022-12-03T04:15:19.252Z,79.34
2022-12-03T04:18:25.094Z,79.51
2022-12-03T04:21:31.222Z,79.62
2022-12-03T04:24:10.187Z,79.62
2022-12-03T04:27:16.090Z,79.70
2022-12-03T04:29:50.531Z,79.89
2022-12-03T04:32:56.088Z,79.89
2022-12-03T04:35:49.166Z,79.69
2022-12-03T04:38:30.210Z,79.35
2022-12-03T04:41:11.100Z,79.42
2022-12-03T04:44:17.096Z,79.39
2022-12-03T04:46:51.536Z,79.16
2022-12-03T04:49:40.091Z,79.21
2022-12-03T04:52:16.641Z,79.10
2022-12-03T04:55:04.103Z,79.21
2022-12-03T04:57:38.574Z,79.23
2022-12-03T05:00:27.096Z,79.28
2022-12-03T05:03:08.138Z,79.18
2022-12-03T05:05:49.328Z,79.22
2022-12-03T05:08:32.303Z,78.98
2022-12-03T05:11:14.242Z,78.94
2022-12-03T05:13:57.101Z,79.10
2022-12-03T05:16:38.312Z,79.12
2022-12-03T05:19:19.263Z,79.17
2022-12-03T05:22:00.287Z,79.07
2022-12-03T05:24:42.266Z,79.10
2022-12-03T05:27:31.083Z,79.04
2022-12-03T05:30:06.285Z,79.02
2022-12-03T05:32:54.297Z,79.15
2022-12-03T05:35:36.081Z,79.18
2022-12-03T05:38:17.217Z,79.09
2022-12-03T05:41:05.089Z,79.08
2022-12-03T05:43:40.208Z,79.17
2022-12-03T05:46:28.132Z,79.05
2022-12-03T05:49:10.079Z,79.04
2022-12-03T05:51:58.851Z,79.19
2022-12-03T05:54:34.265Z,79.13
2022-12-03T05:57:22.268Z,79.09
2022-12-03T06:00:04.075Z,79.14
2022-12-03T06:02:59.253Z,79.35
2022-12-03T06:05:47.082Z,79.30
2022-12-03T06:08:22.242Z,79.34
2022-12-03T06:11:10.062Z,79.33
2022-12-03T06:13:45.420Z,79.36
2022-12-03T06:16:34.359Z,79.10
2022-12-03T06:19:23.272Z,79.14
2022-12-03T06:21:58.511Z,79.10
2022-12-03T06:24:47.528Z,79.31
2022-12-03T06:27:30.106Z,79.23
2022-12-03T06:30:22.061Z,79.14
2022-12-03T06:33:03.110Z,79.13
2022-12-03T06:35:45.211Z,79.26
2022-12-03T06:38:26.076Z,79.27
2022-12-03T06:41:14.073Z,78.95
2022-12-03T06:44:09.252Z,78.98
2022-12-03T06:46:57.126Z,79.00
2022-12-03T06:49:33.874Z,79.04
2022-12-03T06:52:22.076Z,79.09
2022-12-03T06:54:58.068Z,79.19
2022-12-03T06:57:46.077Z,79.19
2022-12-03T07:00:21.222Z,79.17
2022-12-03T07:03:09.291Z,79.03
2022-12-03T07:05:44.204Z,79.13
2022-12-03T07:08:32.043Z,79.37
2022-12-03T07:11:26.138Z,79.43
2022-12-03T07:14:16.048Z,79.05
2022-12-03T07:16:51.472Z,78.91
2022-12-03T07:19:40.061Z,78.69
2022-12-03T07:22:15.174Z,78.64
2022-12-03T07:25:03.070Z,78.66
2022-12-03T07:27:38.196Z,78.41
2022-12-03T07:30:26.114Z,78.16
2022-12-03T07:33:08.061Z,77.85
2022-12-03T07:35:49.501Z,77.87
2022-12-03T07:38:37.059Z,77.91
2022-12-03T07:41:11.521Z,78.00
2022-12-03T07:43:59.059Z,78.06
2022-12-03T07:46:40.076Z,77.87
2022-12-03T07:49:28.045Z,77.68
2022-12-03T07:52:09.060Z,77.42
2022-12-03T07:54:57.061Z,77.39
2022-12-03T07:57:52.047Z,77.44
2022-12-03T08:00:40.129Z,77.33
2022-12-03T08:03:15.197Z,77.33
2022-12-03T08:06:03.052Z,77.30
2022-12-03T08:08:38.412Z,77.31
2022-12-03T08:11:26.059Z,77.02
2022-12-03T08:14:08.032Z,77.03
2022-12-03T08:16:56.104Z,77.06
2022-12-03T08:19:38.040Z,76.83
2022-12-03T08:22:26.052Z,76.95
2022-12-03T08:25:01.250Z,76.76
2022-12-03T08:27:49.031Z,76.62
2022-12-03T08:30:24.212Z,76.55
2022-12-03T08:33:40.147Z,76.50
2022-12-03T08:36:26.954Z,76.49
2022-12-03T08:39:35.037Z,76.73
2022-12-03T08:42:48.055Z,76.69
2022-12-03T08:45:43.434Z,76.63
2022-12-03T08:48:44.039Z,76.41
2022-12-03T08:51:37.104Z,76.41
2022-12-03T08:54:19.224Z,76.75
2022-12-03T08:57:07.127Z,76.72
2022-12-03T08:59:45.457Z,76.33
2022-12-03T09:02:43.134Z,76.23
2022-12-03T09:05:45.041Z,76.27
2022-12-03T09:08:33.043Z,76.02
2022-12-03T09:11:08.167Z,75.79
2022-12-03T09:13:56.019Z,75.61
2022-12-03T09:16:30.289Z,75.53
2022-12-03T09:19:18.033Z,75.58
2022-12-03T09:21:52.175Z,75.85
2022-12-03T09:24:40.036Z,75.70
2022-12-03T09:27:15.208Z,75.72
2022-12-03T09:30:03.043Z,75.78
2022-12-03T09:32:38.218Z,75.82
2022-12-03T09:35:26.050Z,75.77
2022-12-03T09:38:01.354Z,75.71
2022-12-03T09:40:49.188Z,75.51
2022-12-03T09:43:33.498Z,75.34
2022-12-03T09:46:33.102Z,75.52
2022-12-03T09:49:15.328Z,75.53
2022-12-03T09:52:05.238Z,75.48
2022-12-03T09:54:54.340Z,75.58
2022-12-03T09:57:36.038Z,75.63
2022-12-03T10:00:32.085Z,75.25
2022-12-03T10:03:07.813Z,75.18
2022-12-03T10:05:56.041Z,75.13
2022-12-03T10:08:37.040Z,75.07
2022-12-03T10:11:18.169Z,75.06
2022-12-03T10:14:02.036Z,74.94
2022-12-03T10:16:44.352Z,74.67
2022-12-03T10:19:35.044Z,74.75
2022-12-03T10:22:16.215Z,74.41
2022-12-03T10:25:20.023Z,74.47
2022-12-03T10:28:09.237Z,74.75
2022-12-03T10:31:02.078Z,74.76
2022-12-03T10:33:58.988Z,74.70
2022-12-03T10:36:47.016Z,74.80
2022-12-03T10:39:23.187Z,74.82
2022-12-03T10:42:23.038Z,74.85
2022-12-03T10:45:19.411Z,75.02
2022-12-03T10:48:22.018Z,74.74
2022-12-03T10:51:26.153Z,74.73
2022-12-03T10:54:26.030Z,74.52
2022-12-03T10:57:01.137Z,74.52
2022-12-03T10:59:49.194Z,74.51
2022-12-03T11:02:30.271Z,74.44
2022-12-03T11:05:33.015Z,74.53
2022-12-03T11:08:08.223Z,74.59
2022-12-03T11:11:20.191Z,74.30
2022-12-03T11:14:04.472Z,74.46
2022-12-03T11:16:52.174Z,74.71
2022-12-03T11:19:48.300Z,74.79
2022-12-03T11:22:55.281Z,74.97
2022-12-03T11:25:33.215Z,74.91
2022-12-03T11:28:21.010Z,74.97
2022-12-03T11:30:56.967Z,74.68
2022-12-03T11:33:48.008Z,74.80
2022-12-03T11:36:41.993Z,74.72
2022-12-03T11:39:57.222Z,74.75
2022-12-03T11:42:36.171Z,74.69
2022-12-03T11:45:40.022Z,74.72
2022-12-03T11:48:22.686Z,74.77
2022-12-03T11:51:11.220Z,74.61
2022-12-03T11:53:47.303Z,74.81
2022-12-03T11:56:36.993Z,75.02
2022-12-03T11:59:19.410Z,74.83
2022-12-03T12:02:06.999Z,74.99
2022-12-03T12:04:46.826Z,74.94
2022-12-03T12:07:44.489Z,74.95
2022-12-03T12:10:19.163Z,74.91
2022-12-03T12:13:07.119Z,75.02
2022-12-03T12:15:50.220Z,75.03
2022-12-03T12:18:45.243Z,74.98
2022-12-03T12:21:50.153Z,74.90
2022-12-03T12:24:45.098Z,74.66
2022-12-03T12:27:24.172Z,74.54
2022-12-03T12:30:17.013Z,74.84
2022-12-03T12:33:27.142Z,75.03
2022-12-03T12:36:16.010Z,74.96
2022-12-03T12:38:51.225Z,75.30
2022-12-03T12:41:39.113Z,75.30
2022-12-03T12:44:23.982Z,75.21
2022-12-03T12:47:07.023Z,75.26
2022-12-03T12:49:55.500Z,75.16
2022-12-03T12:52:40.094Z,75.33
2022-12-03T12:55:21.553Z,75.37
2022-12-03T12:58:07.170Z,75.44
2022-12-03T13:00:49.177Z,75.65
2022-12-03T13:03:34.022Z,75.75
2022-12-03T13:06:21.660Z,75.93
2022-12-03T13:09:27.803Z,76.07
2022-12-03T13:12:08.346Z,76.23
2022-12-03T13:15:00.865Z,76.36
2022-12-03T13:17:37.185Z,76.46
2022-12-03T13:25:00.742Z,76.41
2022-12-03T13:28:43.855Z,76.47
2022-12-03T13:32:07.979Z,76.38
2022-12-03T13:35:37.008Z,76.22
2022-12-03T13:38:49.267Z,76.22
2022-12-03T13:42:21.269Z,76.46
2022-12-03T13:45:29.920Z,76.72
2022-12-03T13:48:44.174Z,76.89
2022-12-03T13:51:28.444Z,76.91
2022-12-03T13:54:52.302Z,76.88
2022-12-03T13:58:03.763Z,77.02
2022-12-03T14:01:03.352Z,77.18
2022-12-03T14:06:56.047Z,77.51
2022-12-03T14:09:37.003Z,77.64
2022-12-03T14:12:34.040Z,77.63
2022-12-03T14:15:12.711Z,77.91
2022-12-03T14:18:02.752Z,78.04
2022-12-03T14:20:37.437Z,78.06
2022-12-03T14:23:26.163Z,77.90
2022-12-03T14:26:01.599Z,77.81
2022-12-03T14:28:50.155Z,77.92
2022-12-03T14:31:25.849Z,78.14
2022-12-03T14:34:13.985Z,78.20
2022-12-03T14:36:55.534Z,78.44
2022-12-03T14:39:44.187Z,78.50
2022-12-03T14:42:26.186Z,78.67
2022-12-03T14:45:16.968Z,78.64
2022-12-03T14:47:51.612Z,78.56
2022-12-03T14:50:40.162Z,78.59
2022-12-03T14:53:27.067Z,78.72
2022-12-03T14:56:08.307Z,78.60
2022-12-03T14:58:50.062Z,78.55
2022-12-03T15:01:33.913Z,78.64
2022-12-03T15:04:16.049Z,78.78
2022-12-03T15:06:57.135Z,78.94
2022-12-03T15:09:37.970Z,78.97
2022-12-03T15:12:25.974Z,79.03
2022-12-03T15:15:00.698Z,79.04
2022-12-03T15:17:51.981Z,79.10
2022-12-03T15:20:26.418Z,79.14
2022-12-03T15:23:14.714Z,79.29
2022-12-03T15:25:57.019Z,79.37
2022-12-03T15:28:38.099Z,79.54
2022-12-03T15:31:21.998Z,79.75
2022-12-03T15:34:22.069Z,80.31
2022-12-03T15:37:03.956Z,80.18
2022-12-03T15:39:48.382Z,80.06
2022-12-03T15:42:31.962Z,80.16
2022-12-03T15:45:15.713Z,80.17
2022-12-03T15:47:59.466Z,80.36
2022-12-03T15:50:53.945Z,80.51
2022-12-03T15:53:42.982Z,80.62
2022-12-03T15:56:24.996Z,80.66
2022-12-03T15:59:20.414Z,80.69
2022-12-03T16:02:08.073Z,80.60
2022-12-03T16:04:46.032Z,80.54
2022-12-03T16:07:35.141Z,80.53
2022-12-03T16:10:11.196Z,80.60
2022-12-03T16:12:58.956Z,80.67
2022-12-03T16:15:35.810Z,80.63
2022-12-03T16:18:26.617Z,80.72
2022-12-03T16:21:02.092Z,80.78
2022-12-03T16:23:49.966Z,80.92
2022-12-03T16:26:30.016Z,80.88
2022-12-03T16:29:17.958Z,80.70
2022-12-03T16:31:59.197Z,80.68
2022-12-03T16:34:39.943Z,80.65
2022-12-03T16:37:27.969Z,80.59
2022-12-03T16:40:03.040Z,80.58
2022-12-03T16:42:50.954Z,80.53
2022-12-03T16:45:51.101Z,80.58
2022-12-03T16:48:32.158Z,80.72
2022-12-03T16:51:12.960Z,80.63
2022-12-03T16:53:55.169Z,80.71
2022-12-03T16:56:37.959Z,80.70
2022-12-03T16:59:19.075Z,80.86
2022-12-03T17:01:59.977Z,80.91
2022-12-03T17:04:41.134Z,81.27
2022-12-03T17:07:21.938Z,81.29
2022-12-03T17:10:03.099Z,81.31
2022-12-03T17:13:08.340Z,81.58
2022-12-03T17:15:55.713Z,81.54
2022-12-03T17:18:31.377Z,81.58
2022-12-03T17:21:20.957Z,81.54
2022-12-03T17:23:55.452Z,81.67
2022-12-03T17:26:42.934Z,81.49
2022-12-03T17:29:37.938Z,81.45
2022-12-03T17:32:32.940Z,81.45
2022-12-03T17:35:27.945Z,81.28
2022-12-03T17:38:15.943Z,81.35
2022-12-03T17:40:52.414Z,80.94
2022-12-03T17:43:40.076Z,80.83
2022-12-03T17:46:16.123Z,80.92
2022-12-03T17:49:03.955Z,80.94
2022-12-03T17:51:39.535Z,81.00
2022-12-03T17:54:43.224Z,81.00
2022-12-03T17:57:22.083Z,81.09
2022-12-03T18:00:09.942Z,81.09
2022-12-03T18:02:46.085Z,81.13
2022-12-03T18:05:33.889Z,81.11
2022-12-03T18:08:11.060Z,80.86
2022-12-03T18:10:58.966Z,80.64
2022-12-03T18:13:40.955Z,80.65
2022-12-03T18:16:35.965Z,80.56
2022-12-03T18:19:23.934Z,80.68
2022-12-03T18:21:59.080Z,80.79
2022-12-03T18:24:51.576Z,80.79
2022-12-03T18:27:33.163Z,81.16
2022-12-03T18:30:14.948Z,81.09
2022-12-03T18:33:09.922Z,81.03
2022-12-03T18:36:00.952Z,81.16
2022-12-03T18:38:45.075Z,81.00
2022-12-03T18:41:41.138Z,81.27
2022-12-03T18:44:29.510Z,81.34
2022-12-03T18:47:18.027Z,81.47
2022-12-03T18:50:14.022Z,81.54
2022-12-03T18:52:57.336Z,81.64
2022-12-03T18:55:41.936Z,81.50
2022-12-03T18:58:29.927Z,81.58
2022-12-03T19:01:11.984Z,81.39
2022-12-03T19:03:54.060Z,81.35
2022-12-03T19:06:37.931Z,81.37
2022-12-03T19:09:22.265Z,81.35
2022-12-03T19:12:07.587Z,81.38
2022-12-03T19:14:53.568Z,81.41
2022-12-03T19:17:34.931Z,81.36
2022-12-03T19:20:24.962Z,81.24
2022-12-03T19:23:04.055Z,81.20
2022-12-03T19:25:53.019Z,80.98
2022-12-03T19:28:37.585Z,81.06
2022-12-03T19:31:33.694Z,81.11
2022-12-03T19:34:09.060Z,81.18
2022-12-03T19:36:58.073Z,81.19
2022-12-03T19:39:33.481Z,81.26
2022-12-03T19:42:16.213Z,81.30
2022-12-03T19:44:51.154Z,81.30
2022-12-03T19:47:31.932Z,81.12
2022-12-03T19:50:22.606Z,81.19
2022-12-03T19:53:08.380Z,81.09
2022-12-03T19:55:52.672Z,81.08
2022-12-03T19:58:39.692Z,81.08
2022-12-03T20:01:26.432Z,81.20
2022-12-03T20:04:09.967Z,81.16
2022-12-03T20:06:57.940Z,81.30
2022-12-03T20:09:33.400Z,81.28
2022-12-03T20:12:21.177Z,81.18
2022-12-03T20:15:09.220Z,81.09
2022-12-03T20:17:58.038Z,81.09
2022-12-03T20:20:39.224Z,81.30
2022-12-03T20:23:20.901Z,81.43
2022-12-03T20:26:03.352Z,81.66
2022-12-03T20:28:47.072Z,81.68
2022-12-03T20:31:32.305Z,81.81
2022-12-03T20:34:13.885Z,81.67
2022-12-03T20:36:56.037Z,81.82
2022-12-03T20:39:37.089Z,81.85
2022-12-03T20:42:18.502Z,81.94
2022-12-03T20:45:01.550Z,81.96
2022-12-03T20:47:43.670Z,81.82
2022-12-03T20:50:29.585Z,81.86
2022-12-03T20:53:26.911Z,81.86
2022-12-03T20:56:25.033Z,81.89
2022-12-03T20:59:18.039Z,81.86
2022-12-03T21:02:00.064Z,81.96
2022-12-03T21:04:55.909Z,81.78
2022-12-03T21:07:51.616Z,81.88
2022-12-03T21:10:48.565Z,81.96
2022-12-03T21:13:37.092Z,81.95
2022-12-03T21:16:39.294Z,81.79
2022-12-03T21:19:24.336Z,81.90
2022-12-03T21:22:12.111Z,81.89
2022-12-03T21:24:53.974Z,81.95
2022-12-03T21:27:35.529Z,81.90
2022-12-03T21:30:20.494Z,81.91
2022-12-03T21:33:11.910Z,81.98
2022-12-03T21:35:49.888Z,81.88
2022-12-03T21:38:41.322Z,81.95
2022-12-03T21:41:18.319Z,82.05
2022-12-03T21:44:08.795Z,82.10
2022-12-03T21:47:12.280Z,82.13
2022-12-03T21:49:50.907Z,81.93
2022-12-03T21:52:25.953Z,82.02
2022-12-03T21:55:14.903Z,82.14
2022-12-03T21:57:50.417Z,82.25
2022-12-03T22:00:39.092Z,82.24
2022-12-03T22:03:20.894Z,82.24
2022-12-03T22:06:08.887Z,82.24
2022-12-03T22:08:44.575Z,82.10
2022-12-03T22:11:35.901Z,82.09
2022-12-03T22:14:10.561Z,82.07
2022-12-03T22:16:58.885Z,82.15
2022-12-03T22:19:54.083Z,82.30
2022-12-03T22:22:42.028Z,82.34
2022-12-03T22:25:23.872Z,82.30
2022-12-03T22:28:18.873Z,82.24
2022-12-03T22:31:08.940Z,82.30
2022-12-03T22:33:50.280Z,82.24
2022-12-03T22:36:37.963Z,82.28
2022-12-03T22:39:14.005Z,82.48
2022-12-03T22:42:02.898Z,82.47
2022-12-03T22:44:44.071Z,82.64
2022-12-03T22:47:24.875Z,82.74
2022-12-03T22:50:12.884Z,82.68
2022-12-03T22:52:53.880Z,82.62
2022-12-03T22:55:41.892Z,82.58
2022-12-03T22:58:16.357Z,82.67
2022-12-03T23:01:05.883Z,82.72
2022-12-03T23:03:46.949Z,82.83
2022-12-03T23:06:29.015Z,82.78
2022-12-03T23:09:11.085Z,82.81
2022-12-03T23:11:52.016Z,82.84
2022-12-03T23:14:32.884Z,82.70
2022-12-03T23:17:28.876Z,82.73
2022-12-03T23:20:16.861Z,82.80
2022-12-03T23:22:58.871Z,82.82
2022-12-03T23:25:54.675Z,82.88
2022-12-03T23:28:45.870Z,82.78
2022-12-03T23:31:30.066Z,82.74
2022-12-03T23:34:17.918Z,82.76
2022-12-03T23:36:59.875Z,82.64
2022-12-03T23:39:47.852Z,82.62
2022-12-03T23:42:28.889Z,82.71
2022-12-03T23:45:17.870Z,82.58
2022-12-03T23:47:59.872Z,82.46
2022-12-03T23:50:47.886Z,82.47
2022-12-03T23:53:24.180Z,82.35
2022-12-03T23:56:16.865Z,82.39
2022-12-03T23:58:52.045Z,82.43
